Bal?kesir Merkez Airport


Codes: LTBF/BZI
Name: Bal?kesir Merkez Airport
City:
Country: Turkey
Elevation: 340 ft.
Wikipedia:

Photos at Bal?kesir Merkez Airport


   Photos courtesy of SpottingLog. You can add your own sightings and photos by signing up for a free trial today.



No photos found.

Weather at Bal?kesir Merkez Airport


Time (UTC)DescriptionTempratureWindCloud coverageVisibilityPressureHumidity
21-Feb-2024 03:00Clear Sky1°C2 mph, N0%10000m1024hPa93%
21-Feb-2024 06:00Scattered Clouds2°C2 mph, N31%10000m1024hPa91%
21-Feb-2024 09:00Broken Clouds6°C7 mph, N65%10000m1025hPa73%
21-Feb-2024 12:00Overcast Clouds11°C9 mph, N90%10000m1024hPa52%
21-Feb-2024 15:00Broken Clouds9°C7 mph, N80%10000m1024hPa63%
21-Feb-2024 18:00Overcast Clouds6°C4 mph, N85%10000m1025hPa74%
21-Feb-2024 21:00Broken Clouds5°C2 mph, N81%10000m1025hPa76%
22-Feb-2024 00:00Broken Clouds4°C2 mph, N53%10000m1025hPa78%
22-Feb-2024 03:00Clear Sky3°C0 mph, E0%10000m1024hPa80%
22-Feb-2024 06:00Clear Sky4°C0 mph, SE1%10000m1025hPa74%
22-Feb-2024 09:00Clear Sky10°C0 mph, NE0%10000m1024hPa52%
22-Feb-2024 12:00Clear Sky13°C2 mph, NW0%10000m1022hPa41%
22-Feb-2024 15:00Clear Sky12°C2 mph, NE0%10000m1021hPa51%
22-Feb-2024 18:00Clear Sky8°C2 mph, S1%10000m1022hPa57%
22-Feb-2024 21:00Clear Sky7°C2 mph, S0%10000m1022hPa63%
23-Feb-2024 00:00Clear Sky6°C4 mph, S0%10000m1022hPa68%
23-Feb-2024 03:00Clear Sky5°C4 mph, S5%10000m1022hPa71%
23-Feb-2024 06:00Clear Sky7°C4 mph, S7%10000m1022hPa69%
23-Feb-2024 09:00Clear Sky14°C11 mph, S2%10000m1021hPa50%
23-Feb-2024 12:00Clear Sky16°C11 mph, SW2%10000m1020hPa51%
23-Feb-2024 15:00Scattered Clouds14°C7 mph, SW33%10000m1019hPa64%
23-Feb-2024 18:00Scattered Clouds11°C7 mph, S33%10000m1020hPa74%
23-Feb-2024 21:00Scattered Clouds11°C7 mph, S46%10000m1021hPa74%
24-Feb-2024 00:00Scattered Clouds10°C7 mph, S39%10000m1021hPa81%
24-Feb-2024 03:00Clear Sky9°C4 mph, S3%10000m1021hPa85%
24-Feb-2024 06:00Clear Sky10°C4 mph, S1%10000m1022hPa80%
24-Feb-2024 09:00Clear Sky17°C9 mph, S0%10000m1021hPa56%
24-Feb-2024 12:00Clear Sky19°C11 mph, SW0%10000m1020hPa49%
24-Feb-2024 15:00Clear Sky17°C9 mph, SW0%10000m1020hPa61%
24-Feb-2024 18:00Clear Sky12°C4 mph, S0%10000m1021hPa78%
24-Feb-2024 21:00Clear Sky11°C4 mph, SW0%10000m1022hPa83%
25-Feb-2024 00:00Clear Sky10°C4 mph, S3%10000m1021hPa83%
25-Feb-2024 03:00Broken Clouds9°C4 mph, S54%10000m1020hPa83%
25-Feb-2024 06:00Broken Clouds11°C2 mph, S77%10000m1020hPa75%
25-Feb-2024 09:00Overcast Clouds17°C4 mph, S85%10000m1018hPa50%
25-Feb-2024 12:00Broken Clouds20°C4 mph, S77%10000m1014hPa37%
25-Feb-2024 15:00Overcast Clouds18°C2 mph, W99%10000m1013hPa49%
25-Feb-2024 18:00Overcast Clouds14°C2 mph, E100%10000m1012hPa57%
25-Feb-2024 21:00Overcast Clouds13°C2 mph, SE100%10000m1010hPa59%
26-Feb-2024 00:00Overcast Clouds12°C2 mph, SE100%10000m1009hPa59%